createdAt,value
2022-10-21T00:00:54.942Z,1.70
2022-10-21T00:03:23.921Z,1.70
2022-10-21T00:05:52.753Z,1.60
2022-10-21T00:08:21.627Z,1.70
2022-10-21T00:10:53.030Z,1.60
2022-10-21T00:13:22.098Z,1.60
2022-10-21T00:16:01.485Z,1.60
2022-10-21T00:18:30.182Z,1.60
2022-10-21T00:20:58.540Z,1.60
2022-10-21T00:23:26.914Z,1.60
2022-10-21T00:25:58.507Z,1.70
2022-10-21T00:28:27.518Z,1.50
2022-10-21T00:30:58.055Z,1.50
2022-10-21T00:33:29.257Z,1.50
2022-10-21T00:35:59.222Z,1.50
2022-10-21T00:38:27.409Z,1.50
2022-10-21T00:40:56.034Z,1.40
2022-10-21T00:43:24.553Z,1.50
2022-10-21T00:45:56.962Z,1.40
2022-10-21T00:48:34.157Z,1.50
2022-10-21T00:51:05.673Z,1.40
2022-10-21T00:53:36.485Z,1.40
2022-10-21T00:56:14.062Z,1.40
2022-10-21T00:58:46.540Z,1.30
2022-10-21T01:01:17.974Z,1.30
2022-10-21T01:03:51.172Z,1.30
2022-10-21T01:06:22.277Z,1.30
2022-10-21T01:08:50.792Z,1.30
2022-10-21T01:11:22.619Z,1.20
2022-10-21T01:14:11.738Z,1.30
2022-10-21T01:16:48.061Z,1.20
2022-10-21T01:20:11.234Z,1.20
2022-10-21T01:23:03.800Z,1.20
2022-10-21T01:25:51.518Z,1.20
2022-10-21T01:28:29.654Z,1.10
2022-10-21T01:31:02.594Z,1.10
2022-10-21T01:33:41.234Z,1.10
2022-10-21T01:36:26.023Z,1.10
2022-10-21T01:39:05.030Z,1.10
2022-10-21T01:41:40.478Z,1.10
2022-10-21T01:44:17.045Z,1.10
2022-10-21T01:46:50.160Z,1.10
2022-10-21T01:49:25.375Z,1.10
2022-10-21T01:51:55.418Z,1.10
2022-10-21T01:54:27.863Z,1.10
2022-10-21T01:56:58.625Z,1.20
2022-10-21T01:59:31.157Z,1.20
2022-10-21T02:02:03.552Z,1.30
2022-10-21T02:04:33.817Z,1.30
2022-10-21T02:07:02.141Z,1.30
2022-10-21T02:09:33.211Z,1.30
2022-10-21T02:12:04.291Z,1.40
2022-10-21T02:14:35.687Z,1.50
2022-10-21T02:17:06.149Z,1.50
2022-10-21T02:19:34.476Z,1.50
2022-10-21T02:22:05.606Z,1.60
2022-10-21T02:24:40.158Z,1.60
2022-10-21T02:27:08.374Z,1.70
2022-10-21T02:29:39.420Z,1.70
2022-10-21T02:32:25.798Z,1.80
2022-10-21T02:35:15.489Z,1.80
2022-10-21T02:37:50.659Z,1.90
2022-10-21T02:40:23.652Z,1.90
2022-10-21T02:42:55.682Z,2.00
2022-10-21T02:45:24.632Z,2.00
2022-10-21T02:47:54.460Z,2.00
2022-10-21T02:50:22.807Z,2.00
2022-10-21T02:52:50.967Z,2.00
2022-10-21T02:55:19.290Z,2.00
2022-10-21T02:57:47.519Z,2.00
2022-10-21T03:00:16.372Z,2.00
2022-10-21T03:02:45.609Z,2.00
2022-10-21T03:05:15.332Z,2.00
2022-10-21T03:07:43.539Z,1.90
2022-10-21T03:10:11.743Z,1.90
2022-10-21T03:12:39.850Z,1.90
2022-10-21T03:15:09.146Z,1.90
2022-10-21T03:17:37.637Z,1.80
2022-10-21T03:20:16.859Z,1.90
2022-10-21T03:22:45.116Z,1.80
2022-10-21T03:25:13.856Z,1.80
2022-10-21T03:27:42.034Z,1.80
2022-10-21T03:30:11.237Z,1.80
2022-10-21T03:32:39.621Z,1.80
2022-10-21T03:35:09.074Z,1.80
2022-10-21T03:37:38.719Z,1.80
2022-10-21T03:40:11.464Z,1.80
2022-10-21T03:42:41.079Z,1.80
2022-10-21T03:45:10.670Z,1.80
2022-10-21T03:47:38.844Z,1.80
2022-10-21T03:50:11.904Z,1.80
2022-10-21T03:52:44.006Z,1.80
2022-10-21T03:55:12.458Z,1.70
2022-10-21T03:57:40.906Z,1.70
2022-10-21T04:00:10.372Z,1.70
2022-10-21T04:02:41.545Z,1.70
2022-10-21T04:05:11.408Z,1.70
2022-10-21T04:07:40.168Z,1.70
2022-10-21T04:10:11.430Z,1.80
2022-10-21T04:12:39.976Z,1.80
2022-10-21T04:15:09.820Z,1.80
2022-10-21T04:17:37.956Z,1.90
2022-10-21T04:20:07.346Z,1.90
2022-10-21T04:22:35.734Z,1.90
2022-10-21T04:25:04.908Z,2.00
2022-10-21T04:27:34.576Z,2.00
2022-10-21T04:30:03.337Z,2.10
2022-10-21T04:32:31.462Z,2.10
2022-10-21T04:34:59.747Z,2.20
2022-10-21T04:37:27.942Z,2.30
2022-10-21T04:39:57.314Z,2.30
2022-10-21T04:42:25.581Z,2.40
2022-10-21T04:44:55.264Z,2.40
2022-10-21T04:47:23.449Z,2.40
2022-10-21T04:49:52.866Z,2.50
2022-10-21T04:52:21.075Z,2.50
2022-10-21T04:54:49.257Z,2.60
2022-10-21T04:57:17.468Z,2.60
2022-10-21T04:59:45.603Z,2.80
2022-10-21T05:02:15.419Z,2.70
2022-10-21T05:04:43.861Z,2.70
2022-10-21T05:07:12.292Z,2.70
2022-10-21T05:09:40.589Z,2.70
2022-10-21T05:12:08.838Z,2.80
2022-10-21T05:14:37.559Z,2.70
2022-10-21T05:17:05.800Z,2.80
2022-10-21T05:19:35.501Z,2.80
2022-10-21T05:22:03.740Z,2.70
2022-10-21T05:24:31.917Z,2.80
2022-10-21T05:27:00.098Z,3.00
2022-10-21T05:29:28.239Z,2.80
2022-10-21T05:31:56.421Z,3.10
2022-10-21T05:34:24.618Z,2.90
2022-10-21T05:36:54.157Z,2.90
2022-10-21T05:39:22.299Z,2.90
2022-10-21T05:41:50.506Z,3.00
2022-10-21T05:44:18.752Z,3.00
2022-10-21T05:46:46.944Z,3.10
2022-10-21T05:49:15.126Z,3.00
2022-10-21T05:51:44.796Z,3.10
2022-10-21T05:54:14.387Z,3.20
2022-10-21T05:56:42.908Z,3.20
2022-10-21T05:59:11.477Z,3.20
2022-10-21T06:01:40.894Z,3.20
2022-10-21T06:04:09.227Z,3.20
2022-10-21T06:06:37.362Z,3.30
2022-10-21T06:09:05.557Z,3.20
2022-10-21T06:11:35.169Z,3.30
2022-10-21T06:14:03.345Z,3.30
2022-10-21T06:16:35.146Z,3.30
2022-10-21T06:19:03.384Z,3.30
2022-10-21T06:21:31.595Z,3.30
2022-10-21T06:23:59.778Z,3.30
2022-10-21T06:26:33.291Z,3.30
2022-10-21T06:29:05.748Z,3.30
2022-10-21T06:31:33.995Z,3.30
2022-10-21T06:34:02.156Z,3.30
2022-10-21T06:36:30.524Z,3.40
2022-10-21T06:39:01.367Z,3.40
2022-10-21T06:41:29.552Z,3.40
2022-10-21T06:43:57.740Z,3.50
2022-10-21T06:46:27.771Z,3.60
2022-10-21T06:48:56.067Z,3.70
2022-10-21T06:51:25.351Z,3.70
2022-10-21T06:53:56.619Z,3.90
2022-10-21T06:56:25.712Z,4.00
2022-10-21T06:58:54.309Z,4.10
2022-10-21T07:01:34.445Z,4.10
2022-10-21T07:04:11.418Z,4.20
2022-10-21T07:06:39.576Z,4.30
2022-10-21T07:09:08.872Z,4.40
2022-10-21T07:11:37.558Z,4.50
2022-10-21T07:14:05.821Z,4.50
2022-10-21T07:16:35.661Z,4.50
2022-10-21T07:19:04.473Z,4.60
2022-10-21T07:21:34.226Z,4.60
2022-10-21T07:24:02.619Z,4.70
2022-10-21T07:26:32.536Z,4.70
2022-10-21T07:29:01.448Z,4.80
2022-10-21T07:31:32.362Z,4.80
2022-10-21T07:34:01.125Z,4.90
2022-10-21T07:36:31.094Z,5.00
2022-10-21T07:39:03.289Z,5.00
2022-10-21T07:41:33.737Z,5.20
2022-10-21T07:44:02.139Z,5.20
2022-10-21T07:46:30.463Z,5.40
2022-10-21T07:48:58.953Z,5.50
2022-10-21T07:51:30.231Z,5.60
2022-10-21T07:54:02.158Z,5.60
2022-10-21T07:56:33.243Z,5.70
2022-10-21T07:59:02.570Z,5.70
2022-10-21T08:01:30.891Z,5.70
2022-10-21T08:03:59.960Z,5.80
2022-10-21T08:06:29.928Z,5.90
2022-10-21T08:08:58.553Z,5.90
2022-10-21T08:11:29.993Z,5.90
2022-10-21T08:13:58.528Z,6.00
2022-10-21T08:16:27.587Z,6.00
2022-10-21T08:18:56.722Z,5.90
2022-10-21T08:21:24.918Z,6.00
2022-10-21T08:23:53.124Z,6.00
2022-10-21T08:26:21.359Z,6.00
2022-10-21T08:28:50.972Z,6.10
2022-10-21T08:31:21.102Z,6.10
2022-10-21T08:33:49.690Z,6.20
2022-10-21T08:36:19.121Z,6.30
2022-10-21T08:38:47.570Z,6.40
2022-10-21T08:41:44.949Z,6.50
2022-10-21T08:44:24.001Z,6.60
2022-10-21T08:46:58.195Z,6.80
2022-10-21T08:49:31.264Z,6.80
2022-10-21T08:52:04.184Z,7.00
2022-10-21T08:54:41.260Z,7.00
2022-10-21T08:57:11.665Z,7.20
2022-10-21T08:59:42.767Z,7.00
2022-10-21T09:02:29.136Z,7.00
2022-10-21T09:05:20.965Z,7.00
2022-10-21T09:07:57.645Z,7.00
2022-10-21T09:10:34.958Z,7.00
2022-10-21T09:13:11.962Z,7.00
2022-10-21T09:15:52.809Z,7.00
2022-10-21T09:18:33.030Z,7.00
2022-10-21T09:21:14.219Z,7.10
2022-10-21T09:24:05.967Z,7.00
2022-10-21T09:26:38.849Z,7.10
2022-10-21T09:29:29.867Z,7.10
2022-10-21T09:32:10.937Z,7.10
2022-10-21T09:34:50.668Z,7.20
2022-10-21T09:37:31.715Z,7.20
2022-10-21T09:40:14.148Z,7.20
2022-10-21T09:42:47.505Z,7.30
2022-10-21T09:45:22.835Z,7.40
2022-10-21T09:47:58.121Z,7.60
2022-10-21T09:50:27.738Z,7.90
2022-10-21T09:53:02.488Z,7.80
2022-10-21T09:55:32.781Z,7.90
2022-10-21T09:58:02.640Z,7.90
2022-10-21T10:00:43.967Z,8.10
2022-10-21T10:03:13.768Z,8.10
2022-10-21T10:05:47.143Z,8.20
2022-10-21T10:08:35.637Z,8.40
2022-10-21T10:11:18.520Z,8.50
2022-10-21T10:13:48.166Z,8.60
2022-10-21T10:16:23.816Z,8.80
2022-10-21T10:18:55.291Z,8.90
2022-10-21T10:21:24.185Z,8.90
2022-10-21T10:23:54.223Z,9.10
2022-10-21T10:26:29.753Z,9.20
2022-10-21T10:29:00.517Z,9.20
2022-10-21T10:31:32.539Z,9.30
2022-10-21T10:34:05.153Z,9.40
2022-10-21T10:36:36.914Z,9.40
2022-10-21T10:39:08.775Z,9.40
2022-10-21T10:41:40.610Z,9.40
2022-10-21T10:44:27.280Z,9.30
2022-10-21T10:46:56.804Z,9.30
2022-10-21T10:49:27.674Z,9.30
2022-10-21T10:52:21.388Z,9.20
2022-10-21T10:54:50.514Z,9.20
2022-10-21T10:57:29.885Z,9.00
2022-10-21T11:00:15.573Z,9.00
2022-10-21T11:02:49.272Z,9.00
2022-10-21T11:05:24.638Z,9.10
2022-10-21T11:07:54.923Z,9.20
2022-10-21T11:10:36.070Z,9.30
2022-10-21T11:13:06.500Z,9.50
2022-10-21T11:15:54.677Z,9.70
2022-10-21T11:18:31.089Z,9.80
2022-10-21T11:21:20.262Z,9.90
2022-10-21T11:24:10.125Z,10.00
2022-10-21T11:26:45.905Z,10.00
2022-10-21T11:29:36.751Z,10.00
2022-10-21T11:32:18.329Z,10.00
2022-10-21T11:35:00.251Z,10.10
2022-10-21T11:37:44.473Z,10.30
2022-10-21T11:40:20.998Z,10.40
2022-10-21T11:42:52.219Z,10.50
2022-10-21T11:45:37.164Z,10.50
2022-10-21T11:48:15.092Z,10.40
2022-10-21T11:50:50.080Z,10.30
2022-10-21T11:53:38.258Z,10.10
2022-10-21T11:56:16.151Z,10.00
2022-10-21T11:58:56.203Z,9.90
2022-10-21T12:01:33.697Z,9.80
2022-10-21T12:04:24.433Z,9.80
2022-10-21T12:07:10.239Z,9.80
2022-10-21T12:09:46.165Z,9.80
2022-10-21T12:12:18.500Z,9.80
2022-10-21T12:14:51.085Z,9.80
2022-10-21T12:17:22.191Z,9.90
2022-10-21T12:19:56.458Z,9.90
2022-10-21T12:22:27.470Z,10.00
2022-10-21T12:25:08.046Z,10.00
2022-10-21T12:27:42.937Z,10.00
2022-10-21T12:30:17.555Z,10.00
2022-10-21T12:32:55.228Z,10.00
2022-10-21T12:35:30.075Z,10.10
2022-10-21T12:38:22.351Z,10.10
2022-10-21T12:41:12.815Z,10.10
2022-10-21T12:43:41.056Z,10.00
2022-10-21T12:46:11.448Z,9.90
2022-10-21T12:48:44.695Z,9.90
2022-10-21T12:51:21.573Z,9.90
2022-10-21T12:53:53.516Z,9.90
2022-10-21T12:56:32.955Z,9.90
2022-10-21T12:59:04.626Z,9.90
2022-10-21T13:01:42.232Z,10.00
2022-10-21T13:04:48.150Z,10.00
2022-10-21T13:08:02.923Z,10.00
2022-10-21T13:10:32.597Z,9.90
2022-10-21T13:13:42.582Z,9.80
2022-10-21T13:16:29.895Z,9.80
2022-10-21T13:19:00.485Z,9.70
2022-10-21T13:21:39.102Z,9.70
2022-10-21T13:24:30.770Z,9.70
2022-10-21T13:27:03.127Z,9.70
2022-10-21T13:29:43.484Z,9.70
2022-10-21T13:32:22.902Z,9.80
2022-10-21T13:35:01.683Z,9.80
2022-10-21T13:37:34.119Z,9.80
2022-10-21T13:40:05.919Z,9.80
2022-10-21T13:42:43.179Z,9.80
2022-10-21T13:45:25.047Z,9.70
2022-10-21T13:48:08.071Z,9.70
2022-10-21T13:50:40.517Z,9.70
2022-10-21T13:53:28.532Z,9.60
2022-10-21T13:56:02.429Z,9.50
2022-10-21T13:58:39.080Z,9.60
2022-10-21T14:01:12.351Z,9.60
2022-10-21T14:03:42.341Z,9.70
2022-10-21T14:06:13.516Z,9.70
2022-10-21T14:08:44.455Z,9.70
2022-10-21T14:11:18.108Z,9.70
2022-10-21T14:13:49.411Z,9.60
2022-10-21T14:16:26.209Z,9.50
2022-10-21T14:18:54.968Z,9.40
2022-10-21T14:21:26.729Z,9.30
2022-10-21T14:23:55.644Z,9.30
2022-10-21T14:26:24.284Z,9.20
2022-10-21T14:28:53.988Z,9.20
2022-10-21T14:31:22.254Z,9.20
2022-10-21T14:33:50.551Z,9.20
2022-10-21T14:36:20.900Z,9.20
2022-10-21T14:38:55.652Z,9.20
2022-10-21T14:41:27.630Z,9.20
2022-10-21T14:43:59.696Z,9.10
2022-10-21T14:46:27.913Z,9.20
2022-10-21T14:48:59.641Z,9.10
2022-10-21T14:51:28.822Z,9.20
2022-10-21T14:54:00.444Z,9.20
2022-10-21T14:56:33.931Z,9.20
2022-10-21T14:59:20.688Z,9.20
2022-10-21T15:01:49.005Z,9.10
2022-10-21T15:04:42.025Z,9.10
2022-10-21T15:07:18.135Z,9.00
2022-10-21T15:10:18.414Z,9.00
2022-10-21T15:12:50.329Z,8.90
2022-10-21T15:15:44.502Z,8.90
2022-10-21T15:18:18.400Z,8.90
2022-10-21T15:20:54.694Z,8.90
2022-10-21T15:23:27.327Z,8.80
2022-10-21T15:26:00.392Z,8.90
2022-10-21T15:28:31.929Z,8.90
2022-10-21T15:31:03.059Z,8.90
2022-10-21T15:33:31.544Z,8.80
2022-10-21T15:36:04.803Z,8.80
2022-10-21T15:38:33.027Z,8.80
2022-10-21T15:41:01.211Z,8.80
2022-10-21T15:43:29.444Z,8.80
2022-10-21T15:45:57.600Z,8.80
2022-10-21T15:48:28.317Z,8.80
2022-10-21T15:50:57.894Z,8.80
2022-10-21T15:53:26.139Z,8.70
2022-10-21T15:55:55.013Z,8.80
2022-10-21T15:58:23.253Z,8.70
2022-10-21T16:00:51.642Z,8.70
2022-10-21T16:03:19.842Z,8.70
2022-10-21T16:05:49.457Z,8.70
2022-10-21T16:08:17.801Z,8.60
2022-10-21T16:10:47.986Z,8.60
2022-10-21T16:13:16.349Z,8.60
2022-10-21T16:15:44.595Z,8.60
2022-10-21T16:18:14.415Z,8.50
2022-10-21T16:20:44.463Z,8.60
2022-10-21T16:23:14.102Z,8.50
2022-10-21T16:25:42.259Z,8.50
2022-10-21T16:28:13.367Z,8.50
2022-10-21T16:30:41.970Z,8.50
2022-10-21T16:33:11.282Z,8.50
2022-10-21T16:35:39.583Z,8.50
2022-10-21T16:38:07.879Z,8.50
2022-10-21T16:40:37.845Z,8.40
2022-10-21T16:43:06.039Z,8.40
2022-10-21T16:45:34.494Z,8.40
2022-10-21T16:48:05.433Z,8.40
2022-10-21T16:50:39.582Z,8.40
2022-10-21T16:53:08.762Z,8.40
2022-10-21T16:55:39.135Z,8.30
2022-10-21T16:58:07.477Z,8.30
2022-10-21T17:00:39.603Z,8.30
2022-10-21T17:03:08.013Z,8.30
2022-10-21T17:05:36.245Z,8.20
2022-10-21T17:08:04.465Z,8.30
2022-10-21T17:10:32.827Z,8.20
2022-10-21T17:13:02.489Z,8.20
2022-10-21T17:15:30.750Z,8.20
2022-10-21T17:17:59.269Z,8.10
2022-10-21T17:20:30.526Z,8.00
2022-10-21T17:22:58.980Z,8.10
2022-10-21T17:25:27.328Z,8.00
2022-10-21T17:27:55.679Z,8.00
2022-10-21T17:30:25.616Z,8.00
2022-10-21T17:32:54.231Z,7.90
2022-10-21T17:35:22.489Z,7.90
2022-10-21T17:37:52.628Z,7.90
2022-10-21T17:40:24.824Z,7.80
2022-10-21T17:42:53.756Z,7.70
2022-10-21T17:45:22.784Z,7.70
2022-10-21T17:47:53.087Z,7.70
2022-10-21T17:50:24.567Z,7.70
2022-10-21T17:52:53.531Z,7.60
2022-10-21T17:55:22.167Z,7.70
2022-10-21T17:57:50.368Z,7.60
2022-10-21T18:00:18.748Z,7.60
2022-10-21T18:02:47.065Z,7.50
2022-10-21T18:05:16.866Z,7.50
2022-10-21T18:07:45.013Z,7.50
2022-10-21T18:10:13.309Z,7.50
2022-10-21T18:12:41.824Z,7.40
2022-10-21T18:15:13.646Z,7.40
2022-10-21T18:17:42.632Z,7.40
2022-10-21T18:20:11.878Z,7.40
2022-10-21T18:22:41.701Z,7.40
2022-10-21T18:25:10.904Z,7.40
2022-10-21T18:27:40.253Z,7.40
2022-10-21T18:30:10.622Z,7.40
2022-10-21T18:32:41.311Z,7.40
2022-10-21T18:35:10.668Z,7.40
2022-10-21T18:37:39.418Z,7.40
2022-10-21T18:40:11.236Z,7.40
2022-10-21T18:42:39.504Z,7.40
2022-10-21T18:45:08.532Z,7.40
2022-10-21T18:47:37.065Z,7.40
2022-10-21T18:50:06.236Z,7.50
2022-10-21T18:52:34.489Z,7.50
2022-10-21T18:55:02.773Z,7.50
2022-10-21T18:57:32.440Z,7.40
2022-10-21T19:00:00.754Z,7.50
2022-10-21T19:02:29.192Z,7.50
2022-10-21T19:04:59.772Z,7.60
2022-10-21T19:07:30.330Z,7.60
2022-10-21T19:09:58.653Z,7.60
2022-10-21T19:12:26.960Z,7.60
2022-10-21T19:14:57.204Z,7.60
2022-10-21T19:17:27.516Z,7.60
2022-10-21T19:19:56.138Z,7.60
2022-10-21T19:22:26.134Z,7.70
2022-10-21T19:24:54.559Z,7.60
2022-10-21T19:27:23.107Z,7.70
2022-10-21T19:29:51.606Z,7.70
2022-10-21T19:32:21.283Z,7.70
2022-10-21T19:34:49.472Z,7.70
2022-10-21T19:37:17.752Z,7.70
2022-10-21T19:39:46.118Z,7.70
2022-10-21T19:42:14.341Z,7.70
2022-10-21T19:44:42.546Z,7.60
2022-10-21T19:47:10.833Z,7.70
2022-10-21T19:49:40.682Z,7.60
2022-10-21T19:52:09.178Z,7.60
2022-10-21T19:54:37.410Z,7.70
2022-10-21T19:57:05.698Z,7.70
2022-10-21T19:59:33.987Z,7.70
2022-10-21T20:02:02.120Z,7.70
2022-10-21T20:04:33.773Z,7.90
2022-10-21T20:07:04.958Z,7.80
2022-10-21T20:09:35.097Z,7.80
2022-10-21T20:12:06.199Z,7.90
2022-10-21T20:14:34.955Z,7.90
2022-10-21T20:17:03.192Z,7.80
2022-10-21T20:19:31.384Z,7.90
2022-10-21T20:21:59.638Z,7.90
2022-10-21T20:24:29.254Z,8.10
2022-10-21T20:27:01.227Z,8.00
2022-10-21T20:29:30.608Z,8.00
2022-10-21T20:31:59.076Z,8.10
2022-10-21T20:34:27.671Z,8.00
2022-10-21T20:36:55.959Z,8.10
2022-10-21T20:39:24.189Z,8.10
2022-10-21T20:41:53.948Z,8.10
2022-10-21T20:44:22.366Z,8.20
2022-10-21T20:46:50.751Z,8.10
2022-10-21T20:49:19.064Z,8.20
2022-10-21T20:51:47.286Z,8.20
2022-10-21T20:54:17.476Z,8.20
2022-10-21T20:56:46.160Z,8.10
2022-10-21T20:59:16.691Z,8.20
2022-10-21T21:01:46.437Z,8.10
2022-10-21T21:04:16.861Z,8.10
2022-10-21T21:06:46.918Z,8.10
2022-10-21T21:12:05.688Z,8.00
2022-10-21T21:14:35.376Z,8.00
2022-10-21T21:17:03.690Z,7.90
2022-10-21T21:19:31.927Z,7.90
2022-10-21T21:22:00.092Z,7.90
2022-10-21T21:24:28.234Z,7.90
2022-10-21T21:26:56.583Z,7.90
2022-10-21T21:29:24.841Z,7.90
2022-10-21T21:31:54.507Z,7.80
2022-10-21T21:34:22.636Z,7.90
2022-10-21T21:36:50.821Z,7.80
2022-10-21T21:39:19.008Z,7.80
2022-10-21T21:41:47.201Z,7.80
2022-10-21T21:44:15.341Z,7.80
2022-10-21T21:46:43.479Z,7.80
2022-10-21T21:49:13.305Z,7.80
2022-10-21T21:51:41.462Z,7.70
2022-10-21T21:54:09.684Z,7.80
2022-10-21T21:56:37.878Z,7.70
2022-10-21T21:59:06.133Z,7.70
2022-10-21T22:01:34.362Z,7.70
2022-10-21T22:04:03.040Z,7.70
2022-10-21T22:06:34.499Z,7.70
2022-10-21T22:09:03.659Z,7.70
2022-10-21T22:11:33.244Z,7.70
2022-10-21T22:14:01.596Z,7.70
2022-10-21T22:16:31.110Z,7.80
2022-10-21T22:19:00.908Z,7.70
2022-10-21T22:21:30.653Z,7.70
2022-10-21T22:24:00.629Z,7.70
2022-10-21T22:26:29.877Z,7.70
2022-10-21T22:28:58.121Z,7.70
2022-10-21T22:31:29.459Z,7.80
2022-10-21T22:34:00.538Z,7.70
2022-10-21T22:36:29.196Z,7.70
2022-10-21T22:38:57.370Z,7.80
2022-10-21T22:41:27.021Z,7.80
2022-10-21T22:43:55.209Z,7.80
2022-10-21T22:46:38.654Z,7.70
2022-10-21T22:49:06.982Z,7.70
2022-10-21T22:51:35.514Z,7.80
2022-10-21T22:54:03.687Z,7.80
2022-10-21T22:56:33.459Z,7.80
2022-10-21T22:59:01.847Z,7.80
2022-10-21T23:01:30.375Z,7.80
2022-10-21T23:04:02.582Z,7.80
2022-10-21T23:06:31.409Z,7.80
2022-10-21T23:08:59.906Z,7.80
2022-10-21T23:11:28.110Z,7.80
2022-10-21T23:14:03.114Z,7.80
2022-10-21T23:16:36.622Z,7.80
2022-10-21T23:19:05.520Z,7.80
2022-10-21T23:21:33.702Z,7.80
2022-10-21T23:24:01.848Z,7.80
2022-10-21T23:26:30.085Z,7.80
2022-10-21T23:28:59.757Z,7.90
2022-10-21T23:31:27.952Z,7.90
2022-10-21T23:33:56.178Z,7.90
2022-10-21T23:36:24.340Z,7.80
2022-10-21T23:38:55.779Z,7.80
2022-10-21T23:41:24.548Z,7.90
2022-10-21T23:43:52.719Z,7.90
2022-10-21T23:46:22.963Z,7.90
2022-10-21T23:48:51.224Z,7.90
2022-10-21T23:51:19.452Z,7.90
2022-10-21T23:53:47.746Z,7.90
2022-10-21T23:56:15.914Z,7.90
2022-10-21T23:58:44.051Z,8.00
